createdAt,value
2019-01-19T00:00:45.784Z,971.52
2019-01-19T00:01:45.766Z,971.47
2019-01-19T00:02:45.747Z,971.48
2019-01-19T00:03:45.728Z,971.47
2019-01-19T00:04:45.709Z,971.48
2019-01-19T00:05:45.690Z,971.46
2019-01-19T00:06:45.674Z,971.45
2019-01-19T00:07:45.653Z,971.46
2019-01-19T00:08:45.670Z,971.47
2019-01-19T00:09:45.615Z,971.48
2019-01-19T00:10:45.596Z,971.48
2019-01-19T00:11:45.577Z,971.50
2019-01-19T00:12:45.560Z,971.49
2019-01-19T00:13:45.543Z,971.49
2019-01-19T00:14:45.522Z,971.48
2019-01-19T00:15:45.505Z,971.46
2019-01-19T00:16:45.486Z,971.47
2019-01-19T00:17:45.467Z,971.48
2019-01-19T00:18:45.450Z,971.49
2019-01-19T00:19:45.429Z,971.50
2019-01-19T00:20:45.412Z,971.50
2019-01-19T00:21:45.393Z,971.48
2019-01-19T00:22:45.375Z,971.51
2019-01-19T00:23:45.357Z,971.48
2019-01-19T00:24:45.338Z,971.48
2019-01-19T00:25:45.319Z,971.48
2019-01-19T00:26:45.300Z,971.50
2019-01-19T00:27:45.282Z,971.45
2019-01-19T00:28:45.264Z,971.45
2019-01-19T00:29:45.244Z,971.47
2019-01-19T00:30:45.228Z,971.47
2019-01-19T00:31:45.211Z,971.49
2019-01-19T00:32:45.190Z,971.45
2019-01-19T00:33:45.172Z,971.43
2019-01-19T00:34:45.153Z,971.44
2019-01-19T00:35:45.134Z,971.44
2019-01-19T00:36:45.116Z,971.45
2019-01-19T00:37:45.097Z,971.45
2019-01-19T00:38:45.125Z,971.45
2019-01-19T00:39:45.061Z,971.45
2019-01-19T00:40:45.043Z,971.45
2019-01-19T00:41:45.024Z,971.44
2019-01-19T00:42:45.004Z,971.43
2019-01-19T00:43:44.987Z,971.44
2019-01-19T00:44:44.970Z,971.42
2019-01-19T00:45:44.951Z,971.40
2019-01-19T00:46:44.933Z,971.40
2019-01-19T00:47:44.914Z,971.38
2019-01-19T00:48:44.896Z,971.38
2019-01-19T00:49:44.876Z,971.41
2019-01-19T00:50:44.859Z,971.39
2019-01-19T00:51:44.842Z,971.40
2019-01-19T00:52:44.821Z,971.39
2019-01-19T00:53:44.803Z,971.38
2019-01-19T00:54:44.786Z,971.40
2019-01-19T00:55:44.766Z,971.37
2019-01-19T00:56:44.747Z,971.33
2019-01-19T00:57:44.727Z,971.36
2019-01-19T00:58:44.710Z,971.33
2019-01-19T00:59:44.692Z,971.35
2019-01-19T01:00:44.675Z,971.37
2019-01-19T01:01:44.655Z,971.35
2019-01-19T01:02:44.636Z,971.39
2019-01-19T01:03:44.620Z,971.38
2019-01-19T01:04:44.601Z,971.43
2019-01-19T01:05:44.578Z,971.35
2019-01-19T01:06:44.561Z,971.44
2019-01-19T01:07:44.541Z,971.43
2019-01-19T01:08:44.525Z,971.43
2019-01-19T01:09:44.504Z,971.46
2019-01-19T01:10:44.486Z,971.45
2019-01-19T01:11:44.468Z,971.48
2019-01-19T01:12:44.450Z,971.47
2019-01-19T01:13:44.440Z,971.49
2019-01-19T01:14:44.412Z,971.48
2019-01-19T01:15:44.393Z,971.48
2019-01-19T01:16:44.375Z,971.48
2019-01-19T01:17:44.356Z,971.51
2019-01-19T01:18:44.338Z,971.47
2019-01-19T01:19:44.319Z,971.50
2019-01-19T01:20:44.301Z,971.49
2019-01-19T01:21:44.281Z,971.54
2019-01-19T01:22:44.263Z,971.53
2019-01-19T01:23:44.247Z,971.49
2019-01-19T01:24:44.226Z,971.46
2019-01-19T01:25:44.207Z,971.52
2019-01-19T01:26:44.189Z,971.50
2019-01-19T01:27:44.171Z,971.47
2019-01-19T01:28:44.153Z,971.48
2019-01-19T01:29:44.133Z,971.52
2019-01-19T01:30:44.115Z,971.49
2019-01-19T01:31:44.095Z,971.42
2019-01-19T01:32:44.078Z,971.47
2019-01-19T01:33:44.057Z,971.42
2019-01-19T01:34:44.039Z,971.39
2019-01-19T01:35:44.021Z,971.41
2019-01-19T01:36:44.002Z,971.42
2019-01-19T01:37:43.983Z,971.43
2019-01-19T01:38:43.964Z,971.45
2019-01-19T01:39:43.946Z,971.44
2019-01-19T01:40:43.929Z,971.47
2019-01-19T01:41:43.908Z,971.43
2019-01-19T01:42:43.890Z,971.44
2019-01-19T01:43:43.872Z,971.47
2019-01-19T01:44:43.852Z,971.46
2019-01-19T01:45:43.833Z,971.46
2019-01-19T01:46:43.818Z,971.44
2019-01-19T01:47:43.797Z,971.43
2019-01-19T01:48:43.791Z,971.45
2019-01-19T01:49:43.759Z,971.42
2019-01-19T01:50:43.742Z,971.43
2019-01-19T01:51:43.721Z,971.42
2019-01-19T01:52:43.704Z,971.40
2019-01-19T01:53:43.685Z,971.41
2019-01-19T01:54:43.665Z,971.43
2019-01-19T01:55:43.647Z,971.39
2019-01-19T01:56:43.629Z,971.37
2019-01-19T01:57:43.609Z,971.38
2019-01-19T01:58:43.591Z,971.34
2019-01-19T01:59:43.573Z,971.36
2019-01-19T02:00:43.556Z,971.33
2019-01-19T02:01:43.535Z,971.32
2019-01-19T02:02:43.517Z,971.31
2019-01-19T02:03:43.498Z,971.27
2019-01-19T02:04:43.479Z,971.28
2019-01-19T02:05:43.461Z,971.25
2019-01-19T02:06:43.441Z,971.24
2019-01-19T02:07:43.424Z,971.22
2019-01-19T02:08:43.405Z,971.25
2019-01-19T02:09:43.384Z,971.21
2019-01-19T02:10:43.370Z,971.20
2019-01-19T02:11:43.348Z,971.22
2019-01-19T02:12:43.329Z,971.23
2019-01-19T02:13:43.313Z,971.21
2019-01-19T02:14:43.291Z,971.23
2019-01-19T02:15:43.276Z,971.19
2019-01-19T02:16:43.255Z,971.22
2019-01-19T02:17:43.236Z,971.19
2019-01-19T02:18:43.217Z,971.17
2019-01-19T02:19:43.202Z,971.18
2019-01-19T02:20:43.179Z,971.17
2019-01-19T02:21:43.162Z,971.12
2019-01-19T02:22:43.142Z,971.14
2019-01-19T02:23:43.123Z,971.15
2019-01-19T02:24:43.104Z,971.15
2019-01-19T02:25:43.087Z,971.11
2019-01-19T02:26:43.070Z,971.15
2019-01-19T02:27:43.050Z,971.15
2019-01-19T02:28:43.031Z,971.18
2019-01-19T02:29:43.011Z,971.21
2019-01-19T02:30:42.994Z,971.21
2019-01-19T02:31:42.975Z,971.22
2019-01-19T02:32:42.957Z,971.22
2019-01-19T02:33:42.938Z,971.22
2019-01-19T02:34:42.918Z,971.21
2019-01-19T02:35:48.303Z,971.25
2019-01-19T02:36:42.884Z,971.20
2019-01-19T02:37:42.867Z,971.20
2019-01-19T02:38:42.843Z,971.21
2019-01-19T02:39:42.825Z,971.15
2019-01-19T02:40:42.814Z,971.18
2019-01-19T02:41:42.787Z,971.16
2019-01-19T02:42:42.769Z,971.16
2019-01-19T02:43:42.753Z,971.14
2019-01-19T02:44:42.735Z,971.14
2019-01-19T02:45:42.712Z,971.13
2019-01-19T02:46:42.693Z,971.11
2019-01-19T02:47:42.675Z,971.13
2019-01-19T02:48:42.664Z,971.12
2019-01-19T02:49:42.641Z,971.13
2019-01-19T02:50:42.625Z,971.12
2019-01-19T02:51:42.600Z,971.08
2019-01-19T02:52:42.584Z,971.07
2019-01-19T02:53:42.563Z,971.08
2019-01-19T02:54:42.544Z,971.07
2019-01-19T02:55:42.525Z,971.06
2019-01-19T02:56:42.507Z,971.05
2019-01-19T02:57:42.489Z,971.00
2019-01-19T02:58:42.470Z,971.03
2019-01-19T02:59:42.452Z,970.96
2019-01-19T03:00:42.432Z,970.99
2019-01-19T03:01:42.413Z,970.99
2019-01-19T03:02:42.394Z,970.96
2019-01-19T03:03:42.377Z,970.92
2019-01-19T03:04:42.361Z,970.91
2019-01-19T03:05:42.338Z,970.90
2019-01-19T03:06:42.319Z,970.90
2019-01-19T03:07:42.301Z,970.90
2019-01-19T03:08:42.282Z,970.86
2019-01-19T03:09:42.264Z,970.86
2019-01-19T03:10:42.245Z,970.87
2019-01-19T03:11:42.225Z,970.91
2019-01-19T03:12:42.207Z,970.84
2019-01-19T03:13:42.188Z,970.92
2019-01-19T03:14:42.169Z,970.92
2019-01-19T03:15:42.158Z,970.89
2019-01-19T03:16:42.134Z,970.92
2019-01-19T03:17:42.113Z,970.88
2019-01-19T03:18:42.093Z,970.87
2019-01-19T03:19:42.076Z,970.85
2019-01-19T03:20:42.058Z,970.89
2019-01-19T03:21:42.044Z,970.88
2019-01-19T03:22:42.019Z,970.89
2019-01-19T03:23:42.013Z,970.89
2019-01-19T03:24:41.984Z,970.92
2019-01-19T03:25:41.963Z,970.89
2019-01-19T03:26:41.944Z,970.90
2019-01-19T03:27:41.926Z,970.90
2019-01-19T03:28:41.914Z,970.89
2019-01-19T03:29:41.887Z,970.90
2019-01-19T03:30:41.869Z,970.90
2019-01-19T03:31:41.851Z,970.88
2019-01-19T03:32:41.834Z,970.91
2019-01-19T03:33:41.812Z,970.88
2019-01-19T03:34:41.794Z,970.88
2019-01-19T03:35:41.776Z,970.90
2019-01-19T03:36:41.757Z,970.88
2019-01-19T03:37:41.737Z,970.85
2019-01-19T03:38:41.718Z,970.88
2019-01-19T03:39:41.702Z,970.88
2019-01-19T03:40:41.682Z,970.85
2019-01-19T03:41:41.662Z,970.86
2019-01-19T03:42:41.645Z,970.84
2019-01-19T03:43:41.627Z,970.89
2019-01-19T03:44:41.607Z,970.84
2019-01-19T03:45:41.587Z,970.85
2019-01-19T03:46:41.571Z,970.82
2019-01-19T03:47:41.550Z,970.86
2019-01-19T03:48:41.531Z,970.85
2019-01-19T03:49:41.512Z,970.86
2019-01-19T03:50:41.493Z,970.84
2019-01-19T03:51:41.474Z,970.84
2019-01-19T03:52:41.462Z,970.87
2019-01-19T03:53:41.434Z,970.84
2019-01-19T03:54:41.418Z,970.85
2019-01-19T03:55:41.397Z,970.79
2019-01-19T03:56:41.381Z,970.82
2019-01-19T03:57:41.362Z,970.83
2019-01-19T03:58:41.342Z,970.83
2019-01-19T03:59:41.323Z,970.79
2019-01-19T04:00:41.305Z,970.83
2019-01-19T04:01:41.284Z,970.80
2019-01-19T04:02:41.276Z,970.73
2019-01-19T04:03:41.246Z,970.77
2019-01-19T04:04:41.229Z,970.78
2019-01-19T04:05:41.209Z,970.76
2019-01-19T04:06:41.191Z,970.74
2019-01-19T04:07:41.173Z,970.73
2019-01-19T04:08:41.153Z,970.75
2019-01-19T04:09:41.133Z,970.74
2019-01-19T04:10:41.115Z,970.75
2019-01-19T04:11:41.096Z,970.70
2019-01-19T04:12:41.076Z,970.72
2019-01-19T04:13:41.056Z,970.69
2019-01-19T04:14:41.039Z,970.75
2019-01-19T04:15:41.020Z,970.75
2019-01-19T04:16:41.002Z,970.72
2019-01-19T04:17:40.980Z,970.74
2019-01-19T04:18:40.964Z,970.72
2019-01-19T04:19:40.957Z,970.69
2019-01-19T04:20:40.927Z,970.74
2019-01-19T04:21:40.907Z,970.72
2019-01-19T04:22:40.888Z,970.74
2019-01-19T04:23:40.868Z,970.72
2019-01-19T04:24:40.858Z,970.71
2019-01-19T04:25:40.839Z,970.70
2019-01-19T04:26:40.811Z,970.71
2019-01-19T04:27:40.791Z,970.69
2019-01-19T04:28:40.773Z,970.70
2019-01-19T04:29:40.754Z,970.68
2019-01-19T04:30:40.735Z,970.65
2019-01-19T04:31:40.716Z,970.64
2019-01-19T04:32:40.697Z,970.64
2019-01-19T04:33:40.681Z,970.62
2019-01-19T04:34:40.660Z,970.58
2019-01-19T04:35:40.639Z,970.57
2019-01-19T04:36:40.621Z,970.57
2019-01-19T04:37:40.601Z,970.60
2019-01-19T04:38:40.584Z,970.59
2019-01-19T04:39:40.563Z,970.57
2019-01-19T04:40:40.545Z,970.56
2019-01-19T04:41:40.523Z,970.58
2019-01-19T04:42:40.506Z,970.57
2019-01-19T04:43:40.487Z,970.61
2019-01-19T04:44:40.468Z,970.59
2019-01-19T04:45:40.448Z,970.59
2019-01-19T04:46:40.430Z,970.60
2019-01-19T04:47:40.410Z,970.54
2019-01-19T04:48:40.397Z,970.51
2019-01-19T04:49:40.371Z,970.54
2019-01-19T04:50:40.353Z,970.55
2019-01-19T04:51:40.333Z,970.55
2019-01-19T04:52:40.314Z,970.58
2019-01-19T04:53:40.294Z,970.57
2019-01-19T04:54:40.327Z,970.58
2019-01-19T04:55:40.257Z,970.55
2019-01-19T04:56:40.239Z,970.56
2019-01-19T04:57:40.224Z,970.54
2019-01-19T04:58:40.201Z,970.56
2019-01-19T04:59:40.182Z,970.54
2019-01-19T05:00:40.164Z,970.53
2019-01-19T05:01:40.142Z,970.55
2019-01-19T05:02:40.126Z,970.55
2019-01-19T05:03:40.105Z,970.57
2019-01-19T05:04:40.098Z,970.56
2019-01-19T05:05:40.068Z,970.58
2019-01-19T05:06:40.047Z,970.67
2019-01-19T05:07:40.028Z,970.59
2019-01-19T05:08:40.009Z,970.60
2019-01-19T05:09:40.008Z,970.60
2019-01-19T05:10:39.970Z,970.61
2019-01-19T05:11:39.951Z,970.59
2019-01-19T05:12:39.932Z,970.55
2019-01-19T05:13:39.912Z,970.62
2019-01-19T05:14:39.896Z,970.62
2019-01-19T05:15:39.874Z,970.59
2019-01-19T05:16:39.856Z,970.59
2019-01-19T05:17:39.841Z,970.60
2019-01-19T05:18:39.818Z,970.56
2019-01-19T05:19:39.796Z,970.57
2019-01-19T05:20:39.777Z,970.56
2019-01-19T05:21:39.761Z,970.52
2019-01-19T05:22:39.740Z,970.53
2019-01-19T05:23:39.723Z,970.55
2019-01-19T05:24:39.701Z,970.52
2019-01-19T05:25:39.682Z,970.53
2019-01-19T05:26:39.663Z,970.47
2019-01-19T05:27:39.650Z,970.47
2019-01-19T05:28:39.627Z,970.47
2019-01-19T05:29:39.608Z,970.46
2019-01-19T05:30:39.591Z,970.47
2019-01-19T05:31:39.568Z,970.48
2019-01-19T05:32:39.547Z,970.47
2019-01-19T05:33:39.528Z,970.48
2019-01-19T05:34:39.522Z,970.51
2019-01-19T05:35:39.489Z,970.52
2019-01-19T05:36:39.481Z,970.51
2019-01-19T05:37:39.452Z,970.56
2019-01-19T05:38:39.433Z,970.53
2019-01-19T05:39:39.414Z,970.53
2019-01-19T05:40:39.396Z,970.56
2019-01-19T05:41:39.376Z,970.55
2019-01-19T05:42:39.355Z,970.54
2019-01-19T05:43:39.339Z,970.54
2019-01-19T05:44:39.317Z,970.55
2019-01-19T05:45:39.300Z,970.53
2019-01-19T05:46:39.281Z,970.55
2019-01-19T05:47:39.264Z,970.56
2019-01-19T05:48:39.240Z,970.57
2019-01-19T05:49:39.224Z,970.54
2019-01-19T05:50:39.201Z,970.57
2019-01-19T05:51:39.185Z,970.57
2019-01-19T05:52:39.165Z,970.58
2019-01-19T05:53:39.146Z,970.54
2019-01-19T05:54:39.126Z,970.59
2019-01-19T05:55:39.105Z,970.57
2019-01-19T05:56:39.088Z,970.55
2019-01-19T05:57:39.067Z,970.56
2019-01-19T05:58:39.048Z,970.55
2019-01-19T05:59:39.027Z,970.54
2019-01-19T06:00:39.010Z,970.57
2019-01-19T06:01:38.989Z,970.54
2019-01-19T06:02:38.972Z,970.54
2019-01-19T06:03:38.954Z,970.53
2019-01-19T06:04:38.934Z,970.53
2019-01-19T06:05:38.916Z,970.52
2019-01-19T06:06:46.389Z,970.52
2019-01-19T06:07:38.878Z,970.55
2019-01-19T06:08:38.858Z,970.55
2019-01-19T06:09:38.838Z,970.56
2019-01-19T06:10:38.818Z,970.55
2019-01-19T06:11:38.800Z,970.57
2019-01-19T06:12:38.782Z,970.59
2019-01-19T06:13:38.809Z,970.56
2019-01-19T06:14:38.742Z,970.56
2019-01-19T06:15:38.724Z,970.59
2019-01-19T06:16:38.706Z,970.62
2019-01-19T06:17:38.688Z,970.60
2019-01-19T06:18:38.666Z,970.59
2019-01-19T06:19:38.648Z,970.60
2019-01-19T06:20:38.627Z,970.66
2019-01-19T06:21:38.607Z,970.66
2019-01-19T06:22:38.591Z,970.66
2019-01-19T06:23:38.569Z,970.66
2019-01-19T06:24:38.550Z,970.62
2019-01-19T06:25:38.536Z,970.66
2019-01-19T06:26:38.513Z,970.62
2019-01-19T06:27:38.494Z,970.64
2019-01-19T06:28:38.479Z,970.61
2019-01-19T06:29:38.454Z,970.59
2019-01-19T06:30:38.436Z,970.60
2019-01-19T06:31:38.441Z,970.60
2019-01-19T06:32:38.399Z,970.60
2019-01-19T06:33:38.381Z,970.57
2019-01-19T06:34:38.359Z,970.58
2019-01-19T06:35:38.339Z,970.59
2019-01-19T06:36:38.323Z,970.58
2019-01-19T06:37:38.302Z,970.56
2019-01-19T06:38:38.287Z,970.56
2019-01-19T06:39:38.265Z,970.52
2019-01-19T06:40:38.249Z,970.52
2019-01-19T06:41:38.227Z,970.51
2019-01-19T06:42:38.207Z,970.51
2019-01-19T06:43:38.186Z,970.47
2019-01-19T06:44:38.168Z,970.46
2019-01-19T06:45:38.148Z,970.43
2019-01-19T06:46:38.131Z,970.45
2019-01-19T06:47:38.112Z,970.43
2019-01-19T06:48:38.092Z,970.44
2019-01-19T06:49:38.072Z,970.47
2019-01-19T06:50:38.053Z,970.48
2019-01-19T06:51:38.033Z,970.47
2019-01-19T06:52:38.014Z,970.47
2019-01-19T06:53:37.993Z,970.47
2019-01-19T06:54:37.976Z,970.46
2019-01-19T06:55:37.957Z,970.45
2019-01-19T06:56:37.940Z,970.48
2019-01-19T06:57:37.919Z,970.46
2019-01-19T06:58:37.901Z,970.51
2019-01-19T06:59:37.884Z,970.50
2019-01-19T07:00:37.861Z,970.49
2019-01-19T07:01:37.842Z,970.45
2019-01-19T07:02:37.821Z,970.50
2019-01-19T07:03:37.803Z,970.52
2019-01-19T07:04:37.784Z,970.48
2019-01-19T07:05:37.766Z,970.51
2019-01-19T07:06:37.743Z,970.53
2019-01-19T07:07:37.725Z,970.52
2019-01-19T07:08:37.706Z,970.53
2019-01-19T07:09:37.687Z,970.50
2019-01-19T07:10:37.669Z,970.51
2019-01-19T07:11:37.650Z,970.57
2019-01-19T07:12:37.630Z,970.54
2019-01-19T07:13:37.610Z,970.52
2019-01-19T07:14:37.591Z,970.62
2019-01-19T07:15:37.571Z,970.60
2019-01-19T07:16:37.553Z,970.57
2019-01-19T07:17:37.534Z,970.58
2019-01-19T07:18:37.515Z,970.61
2019-01-19T07:19:37.496Z,970.57
2019-01-19T07:20:37.476Z,970.59
2019-01-19T07:21:37.461Z,970.62
2019-01-19T07:22:37.439Z,970.59
2019-01-19T07:23:37.419Z,970.68
2019-01-19T07:24:37.403Z,970.63
2019-01-19T07:25:37.386Z,970.66
2019-01-19T07:26:37.361Z,970.66
2019-01-19T07:27:37.342Z,970.65
2019-01-19T07:28:37.325Z,970.68
2019-01-19T07:29:37.301Z,970.67
2019-01-19T07:30:37.282Z,970.65
2019-01-19T07:31:37.263Z,970.65
2019-01-19T07:32:37.247Z,970.62
2019-01-19T07:33:37.224Z,970.65
2019-01-19T07:34:37.254Z,970.66
2019-01-19T07:35:37.190Z,970.69
2019-01-19T07:36:37.170Z,970.68
2019-01-19T07:37:37.150Z,970.69
2019-01-19T07:38:37.129Z,970.70
2019-01-19T07:39:37.121Z,970.71
2019-01-19T07:40:37.094Z,970.70
2019-01-19T07:41:37.072Z,970.69
2019-01-19T07:42:37.062Z,970.64
2019-01-19T07:43:37.034Z,970.68
2019-01-19T07:44:37.015Z,970.64
2019-01-19T07:45:36.997Z,970.67
2019-01-19T07:46:36.977Z,970.68
2019-01-19T07:47:36.958Z,970.71
2019-01-19T07:48:36.939Z,970.68
2019-01-19T07:49:36.921Z,970.66
2019-01-19T07:50:36.903Z,970.64
2019-01-19T07:51:36.882Z,970.65
2019-01-19T07:52:36.862Z,970.64
2019-01-19T07:53:36.844Z,970.66
2019-01-19T07:54:36.827Z,970.66
2019-01-19T07:55:36.805Z,970.66
2019-01-19T07:56:36.786Z,970.64
2019-01-19T07:57:36.771Z,970.66
2019-01-19T07:58:36.747Z,970.66
2019-01-19T07:59:36.730Z,970.67
2019-01-19T08:00:36.710Z,970.63
2019-01-19T08:01:36.692Z,970.65
2019-01-19T08:02:36.671Z,970.64
2019-01-19T08:03:36.655Z,970.68
2019-01-19T08:04:36.636Z,970.67
2019-01-19T08:05:36.615Z,970.66
2019-01-19T08:06:36.598Z,970.69
2019-01-19T08:07:36.578Z,970.68
2019-01-19T08:08:36.556Z,970.68
2019-01-19T08:09:36.537Z,970.67
2019-01-19T08:10:36.518Z,970.75
2019-01-19T08:11:36.499Z,970.68
2019-01-19T08:12:36.480Z,970.70
2019-01-19T08:13:36.461Z,970.72
2019-01-19T08:14:36.442Z,970.67
2019-01-19T08:15:36.425Z,970.76
2019-01-19T08:16:36.404Z,970.70
2019-01-19T08:17:36.385Z,970.66
2019-01-19T08:18:36.368Z,970.71
2019-01-19T08:19:36.347Z,970.70
2019-01-19T08:20:36.328Z,970.71
2019-01-19T08:21:36.308Z,970.68
2019-01-19T08:22:36.292Z,970.71
2019-01-19T08:23:36.274Z,970.76
2019-01-19T08:24:36.257Z,970.75
2019-01-19T08:25:36.238Z,970.72
2019-01-19T08:26:36.218Z,970.70
2019-01-19T08:27:36.196Z,970.75
2019-01-19T08:28:36.179Z,970.73
2019-01-19T08:29:36.160Z,970.79
2019-01-19T08:30:36.140Z,970.79
2019-01-19T08:31:36.123Z,970.80
2019-01-19T08:32:36.105Z,970.79
2019-01-19T08:33:36.083Z,970.82
2019-01-19T08:34:36.065Z,970.79
2019-01-19T08:35:36.052Z,970.76
2019-01-19T08:36:36.030Z,970.83
2019-01-19T08:37:36.010Z,970.81
2019-01-19T08:38:35.991Z,970.76
2019-01-19T08:39:35.972Z,970.80
2019-01-19T08:40:35.955Z,970.77
2019-01-19T08:41:35.932Z,970.80
2019-01-19T08:42:35.918Z,970.76
2019-01-19T08:43:35.896Z,970.76
2019-01-19T08:44:35.877Z,970.80
2019-01-19T08:45:35.858Z,970.85
2019-01-19T08:46:35.841Z,970.83
2019-01-19T08:47:35.821Z,970.80
2019-01-19T08:48:35.802Z,970.84
2019-01-19T08:49:35.783Z,970.87
2019-01-19T08:50:35.766Z,970.85
2019-01-19T08:51:35.747Z,970.87
2019-01-19T08:52:35.726Z,970.86
2019-01-19T08:53:35.714Z,970.86
2019-01-19T08:54:35.690Z,970.86
2019-01-19T08:55:35.672Z,970.84
2019-01-19T08:56:35.652Z,970.84
2019-01-19T08:57:35.633Z,970.85
2019-01-19T08:58:35.622Z,970.85
2019-01-19T08:59:35.595Z,970.90
2019-01-19T09:00:35.581Z,970.84
2019-01-19T09:01:35.558Z,970.90
2019-01-19T09:02:35.542Z,970.87
2019-01-19T09:03:35.523Z,970.84
2019-01-19T09:04:35.506Z,970.87
2019-01-19T09:05:35.485Z,970.87
2019-01-19T09:06:35.464Z,970.87
2019-01-19T09:07:35.448Z,970.86
2019-01-19T09:08:35.429Z,970.89
2019-01-19T09:09:35.411Z,970.92
2019-01-19T09:10:35.396Z,970.91
2019-01-19T09:11:35.375Z,970.88
2019-01-19T09:12:35.357Z,970.88
2019-01-19T09:13:35.336Z,970.91
2019-01-19T09:14:35.319Z,970.93
2019-01-19T09:15:35.301Z,970.90
2019-01-19T09:16:39.593Z,970.93
2019-01-19T09:17:35.265Z,970.93
2019-01-19T09:18:35.245Z,970.95
2019-01-19T09:19:35.226Z,970.91
2019-01-19T09:20:35.209Z,970.94
2019-01-19T09:21:35.193Z,970.94
2019-01-19T09:22:35.170Z,970.91
2019-01-19T09:23:35.153Z,970.92
2019-01-19T09:24:35.141Z,970.90
2019-01-19T09:25:35.118Z,970.91
2019-01-19T09:26:35.100Z,970.93
2019-01-19T09:27:35.080Z,970.90
2019-01-19T09:28:35.063Z,970.89
2019-01-19T09:29:35.045Z,970.89
2019-01-19T09:30:35.027Z,970.92
2019-01-19T09:31:35.010Z,970.93
2019-01-19T09:32:34.991Z,970.93
2019-01-19T09:33:34.974Z,970.96
2019-01-19T09:34:34.953Z,970.97
2019-01-19T09:35:34.934Z,970.98
2019-01-19T09:36:34.918Z,970.99
2019-01-19T09:37:40.828Z,970.99
2019-01-19T09:38:34.881Z,970.97
2019-01-19T09:39:34.863Z,971.00
2019-01-19T09:40:34.845Z,970.98
2019-01-19T09:41:34.826Z,970.97
2019-01-19T09:42:34.808Z,971.03
2019-01-19T09:43:34.793Z,971.00
2019-01-19T09:44:34.772Z,971.03
2019-01-19T09:45:34.759Z,971.03
2019-01-19T09:46:34.744Z,970.97
2019-01-19T09:47:34.721Z,971.01
2019-01-19T09:48:34.701Z,971.02
2019-01-19T09:49:34.685Z,971.00
2019-01-19T09:50:34.672Z,970.98
2019-01-19T09:51:34.648Z,970.98
2019-01-19T09:52:34.634Z,970.99
2019-01-19T09:53:34.617Z,971.04
2019-01-19T09:54:34.593Z,971.02
2019-01-19T09:55:34.578Z,971.05
2019-01-19T09:56:34.561Z,971.01
2019-01-19T09:57:34.543Z,971.09
2019-01-19T09:58:34.522Z,971.11
2019-01-19T09:59:34.506Z,971.12
2019-01-19T10:00:36.648Z,971.09
2019-01-19T10:01:34.469Z,971.10
2019-01-19T10:02:34.453Z,971.09
2019-01-19T10:03:34.435Z,971.08
2019-01-19T10:04:34.418Z,971.04
2019-01-19T10:05:34.399Z,971.04
2019-01-19T10:06:34.383Z,971.02
2019-01-19T10:07:34.365Z,970.99
2019-01-19T10:08:34.348Z,970.98
2019-01-19T10:09:34.328Z,970.99
2019-01-19T10:10:34.359Z,970.97
2019-01-19T10:11:34.296Z,970.93
2019-01-19T10:12:34.278Z,970.93
2019-01-19T10:13:34.261Z,970.95
2019-01-19T10:14:34.243Z,970.93
2019-01-19T10:15:34.228Z,970.91
2019-01-19T10:16:34.210Z,970.89
2019-01-19T10:17:34.190Z,970.91
2019-01-19T10:18:34.177Z,970.87
2019-01-19T10:19:34.158Z,970.90
2019-01-19T10:20:34.146Z,970.89
2019-01-19T10:21:34.124Z,970.88
2019-01-19T10:22:34.112Z,970.86
2019-01-19T10:23:34.091Z,970.87
2019-01-19T10:24:34.075Z,970.85
2019-01-19T10:25:34.056Z,970.84
2019-01-19T10:26:34.041Z,970.85
2019-01-19T10:27:37.484Z,970.84
2019-01-19T10:28:34.005Z,970.87
2019-01-19T10:29:33.987Z,970.84
2019-01-19T10:30:33.971Z,970.76
2019-01-19T10:31:33.953Z,970.81
2019-01-19T10:32:33.936Z,970.80
2019-01-19T10:33:33.918Z,970.77
2019-01-19T10:34:33.902Z,970.78
2019-01-19T10:35:33.884Z,970.75
2019-01-19T10:36:33.868Z,970.72
2019-01-19T10:37:33.851Z,970.75
2019-01-19T10:38:33.835Z,970.74
2019-01-19T10:39:33.820Z,970.70
2019-01-19T10:40:33.800Z,970.71
2019-01-19T10:41:40.669Z,970.62
2019-01-19T10:42:33.769Z,970.66
2019-01-19T10:43:33.753Z,970.61
2019-01-19T10:44:33.735Z,970.63
2019-01-19T10:45:33.717Z,970.63
2019-01-19T10:46:33.701Z,970.62
2019-01-19T10:47:33.685Z,970.61
2019-01-19T10:48:33.668Z,970.57
2019-01-19T10:49:33.651Z,970.58
2019-01-19T10:50:33.636Z,970.54
2019-01-19T10:51:33.618Z,970.57
2019-01-19T10:52:33.604Z,970.53
2019-01-19T10:53:33.584Z,970.53
2019-01-19T10:54:33.567Z,970.50
2019-01-19T10:55:33.551Z,970.48
2019-01-19T10:56:33.538Z,970.49
2019-01-19T10:57:33.520Z,970.46
2019-01-19T10:58:33.501Z,970.45
2019-01-19T10:59:33.487Z,970.42
2019-01-19T11:00:33.469Z,970.42
2019-01-19T11:01:33.452Z,970.38
2019-01-19T11:02:33.436Z,970.40
2019-01-19T11:03:33.424Z,970.40
2019-01-19T11:04:33.405Z,970.38
2019-01-19T11:05:33.389Z,970.41
2019-01-19T11:06:33.372Z,970.36
2019-01-19T11:07:33.358Z,970.39
2019-01-19T11:08:33.346Z,970.34
2019-01-19T11:09:33.326Z,970.35
2019-01-19T11:10:33.305Z,970.34
2019-01-19T11:11:33.289Z,970.34
2019-01-19T11:12:33.275Z,970.33
2019-01-19T11:13:33.255Z,970.34
2019-01-19T11:14:33.242Z,970.33
2019-01-19T11:15:33.225Z,970.32
2019-01-19T11:16:33.209Z,970.27
2019-01-19T11:17:33.191Z,970.27
2019-01-19T11:18:33.179Z,970.30
2019-01-19T11:19:33.162Z,970.22
2019-01-19T11:20:33.144Z,970.25
2019-01-19T11:21:33.131Z,970.23
2019-01-19T11:22:33.113Z,970.24
2019-01-19T11:23:39.600Z,970.22
2019-01-19T11:24:33.079Z,970.16
2019-01-19T11:25:33.064Z,970.14
2019-01-19T11:26:33.049Z,970.15
2019-01-19T11:27:33.035Z,970.12
2019-01-19T11:28:33.015Z,970.16
2019-01-19T11:29:33.000Z,970.14
2019-01-19T11:30:32.985Z,970.14
2019-01-19T11:31:32.967Z,970.09
2019-01-19T11:32:32.952Z,970.11
2019-01-19T11:33:32.938Z,970.11
2019-01-19T11:34:32.923Z,970.09
2019-01-19T11:35:32.906Z,970.07
2019-01-19T11:36:32.891Z,970.06
2019-01-19T11:37:32.872Z,970.04
2019-01-19T11:38:32.858Z,970.02
2019-01-19T11:39:32.843Z,970.01
2019-01-19T11:40:32.826Z,969.97
2019-01-19T11:41:32.812Z,969.98
2019-01-19T11:42:32.796Z,969.98
2019-01-19T11:43:32.782Z,970.00
2019-01-19T11:44:32.766Z,969.98
2019-01-19T11:45:32.749Z,969.99
2019-01-19T11:46:32.733Z,969.98
2019-01-19T11:47:32.770Z,969.97
2019-01-19T11:48:32.705Z,969.97
2019-01-19T11:49:32.688Z,969.92
2019-01-19T11:50:32.670Z,969.95
2019-01-19T11:51:32.657Z,969.92
2019-01-19T11:52:32.646Z,969.89
2019-01-19T11:53:32.625Z,969.92
2019-01-19T11:54:32.610Z,969.90
2019-01-19T11:55:32.593Z,969.84
2019-01-19T11:56:32.579Z,969.85
2019-01-19T11:57:32.563Z,969.83
2019-01-19T11:58:32.548Z,969.79
2019-01-19T11:59:32.533Z,969.82
2019-01-19T12:00:32.516Z,969.80
2019-01-19T12:01:32.503Z,969.79
2019-01-19T12:02:36.906Z,969.78
2019-01-19T12:03:32.474Z,969.78
2019-01-19T12:04:33.041Z,969.73
2019-01-19T12:05:32.439Z,969.72
2019-01-19T12:06:32.426Z,969.65
2019-01-19T12:07:32.409Z,969.65
2019-01-19T12:08:32.392Z,969.66
2019-01-19T12:09:32.379Z,969.63
2019-01-19T12:10:32.361Z,969.64
2019-01-19T12:11:32.346Z,969.62
2019-01-19T12:12:32.331Z,969.62
2019-01-19T12:13:32.315Z,969.59
2019-01-19T12:14:32.298Z,969.56
2019-01-19T12:15:32.284Z,969.52
2019-01-19T12:16:32.271Z,969.51
2019-01-19T12:17:32.252Z,969.54
2019-01-19T12:18:32.242Z,969.53
2019-01-19T12:19:32.221Z,969.51
2019-01-19T12:20:32.205Z,969.51
2019-01-19T12:21:32.188Z,969.48
2019-01-19T12:22:32.175Z,969.46
2019-01-19T12:23:32.158Z,969.43
2019-01-19T12:24:32.143Z,969.42
2019-01-19T12:25:32.125Z,969.43
2019-01-19T12:26:32.112Z,969.41
2019-01-19T12:27:32.094Z,969.39
2019-01-19T12:28:32.082Z,969.39